Latest Weather Observations for Arlington Reef

IDQ60801

Issued at 8:02 am EST Tuesday 21 February 2017 (issued every 30 minutes, with the page automatically refreshed every 10 minutes)

About weather observations | Map of weather stations | Latest weather observations for QLD | Other Formats
Station Details ID: 200879 Name: ARLINGTON REEF Lat: -16.72 Lon: 146.11 Height: 0.0 m
Data from the previous 72 hours. | See also: Recent months at Arlington Reef
Date/Time
EST
Temp
°C
App
Temp
°C
Dew
Point
°C
Rel
Hum
%
Delta-T
°C
Wind Press
QNH
hPa
Press
MSL
hPa
Rain since
9am
mm
Dir  Spd
km/h
Gust
km/h
Spd
kts
Gust
kts
21/07:30am - - - - - CALM 0 0 0 0 1011.6 1011.6 -
21/07:00am - - - - - NNW 4 6 2 3 1011.2 1011.2 -
21/06:30am - - - - - NW 6 7 3 4 1010.8 1010.8 -
21/06:00am - - - - - NW 7 9 4 5 1010.3 1010.3 -
21/05:30am - - - - - WNW 7 9 4 5 1010.0 1010.0 -
21/05:00am - - - - - WNW 7 9 4 5 1009.8 1009.8 -
21/04:30am - - - - - NW 9 11 5 6 1009.6 1009.6 -
21/04:00am - - - - - NW 4 7 2 4 1009.5 1009.5 -
21/03:30am - - - - - WNW 9 13 5 7 1009.6 1009.6 -
21/03:00am - - - - - NW 9 11 5 6 1009.4 1009.4 -
21/02:30am - - - - - WNW 11 13 6 7 1009.5 1009.5 -
21/02:00am - - - - - WNW 11 13 6 7 1009.9 1009.9 -
21/01:30am - - - - - WNW 9 13 5 7 1010.2 1010.2 -
21/01:00am - - - - - WNW 11 15 6 8 1010.6 1010.6 -
21/12:30am - - - - - WNW 20 24 11 13 1010.9 1010.9 -
21/12:00am - - - - - NW 13 15 7 8 1011.2 1011.2 -
 
Date/Time
EST
Temp
°C
App
Temp
°C
Dew
Point
°C
Rel
Hum
%
Delta-T
°C
Wind Press
QNH
hPa
Press
MSL
hPa
Rain since
9am
mm
Dir  Spd
km/h
Gust
km/h
Spd
kts
Gust
kts
20/11:30pm - - - - - NW 20 24 11 13 1011.7 1011.7 -
20/11:00pm - - - - - NW 17 19 9 10 1011.5 1011.5 -
20/10:30pm - - - - - WNW 20 24 11 13 1011.8 1011.8 -
20/10:00pm - - - - - NW 20 24 11 13 1011.9 1011.9 -
20/09:30pm - - - - - NNW 15 19 8 10 1011.7 1011.7 -
20/09:00pm - - - - - N 13 17 7 9 1011.2 1011.2 -
20/08:30pm - - - - - N 13 17 7 9 1010.9 1010.9 -
20/08:00pm - - - - - N 17 19 9 10 1010.4 1010.4 -
20/07:30pm - - - - - NNE 17 20 9 11 1010.1 1010.1 -
20/07:00pm - - - - - N 15 17 8 9 1009.6 1009.6 -
20/06:30pm - - - - - NNE 13 17 7 9 1009.1 1009.1 -
20/06:00pm - - - - - NNE 13 20 7 11 1008.8 1008.8 -
20/05:30pm - - - - - NNE 13 17 7 9 1008.4 1008.4 -
20/05:00pm - - - - - NE 13 17 7 9 1008.2 1008.2 -
20/04:30pm - - - - - ENE 13 17 7 9 1008.1 1008.1 -
20/04:00pm - - - - - NE 13 17 7 9 1008.1 1008.1 -
20/03:30pm - - - - - ENE 15 17 8 9 1007.9 1007.9 -
20/03:00pm - - - - - E 9 13 5 7 1008.0 1008.0 -
20/02:30pm - - - - - E 7 9 4 5 1008.3 1008.3 -
20/02:00pm - - - - - ESE 7 13 4 7 1008.4 1008.4 -
20/01:30pm - - - - - SE 9 13 5 7 1008.8 1008.8 -
20/01:00pm - - - - - ENE 2 4 1 2 1009.0 1009.0 -
20/12:30pm - - - - - CALM 0 0 0 0 1009.5 1009.5 -
20/12:00pm - - - - - CALM 0 9 0 5 1009.9 1009.9 -
20/11:30am - - - - - CALM 0 0 0 0 1010.2 1010.2 -
20/11:00am - - - - - SSE 4 4 2 2 1010.2 1010.2 -
20/10:30am - - - - - SSW 4 6 2 3 1010.3 1010.3 -
20/10:00am - - - - - SW 4 7 2 4 1010.5 1010.5 -
20/09:30am - - - - - CALM 0 0 0 0 1010.4 1010.4 -
20/09:00am - - - - - SSW 2 4 1 2 1010.2 1010.2 -
20/08:30am - - - - - CALM 0 6 0 3 1009.9 1009.9 -
20/08:00am - - - - - SSW 2 4 1 2 1009.7 1009.7 -
20/07:30am - - - - - CALM 0 0 0 0 1009.2 1009.2 -
20/07:00am - - - - - WSW 4 6 2 3 1008.8 1008.8 -
20/06:30am - - - - - WSW 9 11 5 6 1008.3 1008.3 -
20/06:00am - - - - - WSW 11 13 6 7 1008.3 1008.3 -
20/05:30am - - - - - WSW 17 20 9 11 1008.0 1008.0 -
20/05:00am - - - - - W 11 17 6 9 1007.6 1007.6 -
20/04:30am - - - - - NNW 6 11 3 6 1007.2 1007.2 -
20/04:00am - - - - - NNW 7 9 4 5 1007.2 1007.2 -
20/03:30am - - - - - NNW 9 11 5 6 1007.2 1007.2 -
20/03:00am - - - - - NW 11 13 6 7 1007.4 1007.4 -
20/02:30am - - - - - WNW 13 17 7 9 1007.7 1007.7 -
20/02:00am - - - - - WNW 11 15 6 8 1007.9 1007.9 -
20/01:30am - - - - - WNW 11 15 6 8 1008.2 1008.2 -
20/01:00am - - - - - NW 11 13 6 7 1008.5 1008.5 -
20/12:30am - - - - - NW 9 11 5 6 1008.7 1008.7 -
20/12:00am - - - - - NW 9 11 5 6 1008.8 1008.8 -
 
Date/Time
EST
Temp
°C
App
Temp
°C
Dew
Point
°C
Rel
Hum
%
Delta-T
°C
Wind Press
QNH
hPa
Press
MSL
hPa
Rain since
9am
mm
Dir  Spd
km/h
Gust
km/h
Spd
kts
Gust
kts
19/11:30pm - - - - - NW 7 9 4 5 1009.4 1009.4 -
19/11:00pm - - - - - NW 7 11 4 6 1009.9 1009.9 -
19/10:30pm - - - - - NW 7 9 4 5 1010.1 1010.1 -
19/10:00pm - - - - - N 4 7 2 4 1009.9 1009.9 -
19/09:30pm - - - - - NNE 6 9 3 5 1009.8 1009.8 -
19/09:00pm - - - - - N 6 11 3 6 1009.6 1009.6 -
19/08:30pm - - - - - NNE 6 7 3 4 1009.1 1009.1 -
19/08:00pm - - - - - NNE 6 9 3 5 1008.7 1008.7 -
19/07:30pm - - - - - N 6 9 3 5 1008.3 1008.3 -
19/07:00pm - - - - - N 7 9 4 5 1008.1 1008.1 -
19/06:30pm - - - - - N 6 7 3 4 1007.5 1007.5 -
19/06:00pm - - - - - N 6 9 3 5 1007.0 1007.0 -
19/05:30pm - - - - - N 6 9 3 5 1006.8 1006.8 -
19/05:00pm - - - - - N 7 11 4 6 1006.5 1006.5 -
19/04:30pm - - - - - N 9 11 5 6 1006.5 1006.5 -
19/04:00pm - - - - - N 7 9 4 5 1006.5 1006.5 -
19/03:30pm - - - - - N 7 11 4 6 1006.8 1006.8 -
19/03:00pm - - - - - N 11 15 6 8 1006.9 1006.9 -
19/02:30pm - - - - - N 13 17 7 9 1007.2 1007.2 -
19/02:00pm - - - - - N 15 19 8 10 1007.2 1007.2 -
19/01:30pm - - - - - N 13 15 7 8 1007.7 1007.7 -
19/01:00pm - - - - - N 13 17 7 9 1008.1 1008.1 -
19/12:30pm - - - - - NNW 17 20 9 11 1008.6 1008.6 -
19/12:00pm - - - - - NNW 22 24 12 13 1008.7 1008.7 -
19/11:30am - - - - - N 15 17 8 9 1008.9 1008.9 -
19/11:00am - - - - - NNW 15 17 8 9 1009.2 1009.2 -
19/10:30am - - - - - NW 11 15 6 8 1009.7 1009.7 -
19/10:00am - - - - - NW 9 13 5 7 1010.1 1010.1 -
19/09:30am - - - - - WNW 15 19 8 10 1010.5 1010.5 -
19/09:00am - - - - - WNW 13 17 7 9 1010.4 1010.4 -
19/08:30am - - - - - NW 13 17 7 9 1010.4 1010.4 -
19/08:00am - - - - - NW 13 17 7 9 1010.1 1010.1 -
19/07:30am - - - - - NW 13 15 7 8 1009.9 1009.9 -
19/07:00am - - - - - NW 11 13 6 7 1009.5 1009.5 -
19/06:30am - - - - - NNW 11 15 6 8 1009.2 1009.2 -
19/06:00am - - - - - N 11 15 6 8 1008.7 1008.7 -
19/05:30am - - - - - NNW 11 13 6 7 1008.4 1008.4 -
19/05:00am - - - - - N 9 11 5 6 1008.1 1008.1 -
19/04:30am - - - - - N 11 13 6 7 1008.1 1008.1 -
19/04:00am - - - - - NNE 6 9 3 5 1008.0 1008.0 -
19/03:30am - - - - - N 7 9 4 5 1007.8 1007.8 -
19/03:00am - - - - - N 7 9 4 5 1007.7 1007.7 -
19/02:30am - - - - - N 6 7 3 4 1007.9 1007.9 -
19/02:00am - - - - - N 4 6 2 3 1008.5 1008.5 -
19/01:30am - - - - - N 2 4 1 2 1008.7 1008.7 -
19/01:00am - - - - - CALM 0 0 0 0 1009.1 1009.1 -
19/12:30am - - - - - CALM 0 0 0 0 1009.3 1009.3 -
19/12:00am - - - - - NW 6 7 3 4 1009.6 1009.6 -
 
Date/Time
EST
Temp
°C
App
Temp
°C
Dew
Point
°C
Rel
Hum
%
Delta-T
°C
Wind Press
QNH
hPa
Press
MSL
hPa
Rain since
9am
mm
Dir  Spd
km/h
Gust
km/h
Spd
kts
Gust
kts
18/11:30pm - - - - - NNW 6 9 3 5 1010.2 1010.2 -
18/11:00pm - - - - - N 9 11 5 6 1010.3 1010.3 -
18/10:30pm - - - - - N 9 13 5 7 1010.3 1010.3 -
18/10:00pm - - - - - N 7 9 4 5 1010.3 1010.3 -
18/09:30pm - - - - - NNW 4 6 2 3 1010.1 1010.1 -
18/09:00pm - - - - - CALM 0 2 0 1 1009.9 1009.9 -
18/08:30pm - - - - - N 4 4 2 2 1009.9 1009.9 -
18/08:00pm - - - - - N 4 6 2 3 1009.9 1009.9 -
18/07:30pm - - - - - N 7 9 4 5 1009.9 1009.9 -
18/07:00pm - - - - - N 9 11 5 6 1009.8 1009.8 -
18/06:30pm - - - - - N 9 13 5 7 1009.7 1009.7 -
18/06:00pm - - - - - NE 7 11 4 6 1009.4 1009.4 -
18/05:30pm - - - - - NE 9 11 5 6 1009.3 1009.3 -
18/05:00pm - - - - - ENE 9 11 5 6 1008.9 1008.9 -
18/04:30pm - - - - - E 9 11 5 6 1008.4 1008.4 -
18/04:00pm - - - - - E 9 13 5 7 1008.7 1008.7 -
18/03:30pm - - - - - E 11 13 6 7 1008.5 1008.5 -
18/03:00pm - - - - - E 11 15 6 8 1008.8 1008.8 -
18/02:30pm - - - - - E 9 13 5 7 1009.3 1009.3 -
18/02:00pm - - - - - ENE 9 15 5 8 1009.7 1009.7 -
18/01:30pm - - - - - ENE 7 9 4 5 1010.2 1010.2 -
18/01:00pm - - - - - ENE 7 13 4 7 1010.6 1010.6 -
18/12:30pm - - - - - E 9 11 5 6 1011.0 1011.0 -
18/12:00pm - - - - - E 7 11 4 6 1011.4 1011.4 -
18/11:30am - - - - - E 9 13 5 7 1011.6 1011.6 -
18/11:00am - - - - - E 9 13 5 7 1011.8 1011.8 -
18/10:30am - - - - - ENE 6 7 3 4 1011.9 1011.9 -
18/10:00am - - - - - NE 6 7 3 4 1012.2 1012.2 -
18/09:30am - - - - - E 13 17 7 9 1012.4 1012.4 -
18/09:00am - - - - - SE 2 4 1 2 1012.4 1012.4 -
18/08:30am - - - - - SSE 7 9 4 5 1012.4 1012.4 -

Other Formats:

Comma delimited format used in spreadsheet applications
http://www.bom.gov.au/fwo/IDQ60801/IDQ60801.94284.axf

JavaScript Object Notation format (JSON) in row-major order
http://www.bom.gov.au/fwo/IDQ60801/IDQ60801.94284.json